createdAt,value
2018-10-19T00:00:14.487Z,1019.21
2018-10-19T00:00:40.645Z,1019.2
2018-10-19T00:01:06.779Z,1019.2
2018-10-19T00:01:32.910Z,1019.2
2018-10-19T00:01:59.066Z,1019.17
2018-10-19T00:02:25.202Z,1019.19
2018-10-19T00:02:51.330Z,1019.16
2018-10-19T00:03:17.491Z,1019.17
2018-10-19T00:03:43.622Z,1019.13
2018-10-19T00:04:09.753Z,1019.16
2018-10-19T00:04:35.892Z,1019.13
2018-10-19T00:05:02.064Z,1019.12
2018-10-19T00:05:28.193Z,1019.12
2018-10-19T00:05:54.350Z,1019.12
2018-10-19T00:06:20.499Z,1019.11
2018-10-19T00:06:46.683Z,1019.05
2018-10-19T00:07:12.820Z,1019.07
2018-10-19T00:07:38.949Z,1019.05
2018-10-19T00:08:05.076Z,1019.08
2018-10-19T00:08:31.210Z,1019.08
2018-10-19T00:08:57.384Z,1019.06
2018-10-19T00:09:23.491Z,1019.06
2018-10-19T00:09:49.652Z,1019.03
2018-10-19T00:10:15.830Z,1019.08
2018-10-19T00:10:41.956Z,1019
2018-10-19T00:11:08.156Z,1019.05
2018-10-19T00:11:34.259Z,1019.02
2018-10-19T00:12:00.425Z,1019.01
2018-10-19T00:12:26.570Z,1019
2018-10-19T00:12:52.790Z,1018.99
2018-10-19T00:13:18.902Z,1019.02
2018-10-19T00:13:45.034Z,1018.99
2018-10-19T00:14:11.187Z,1019.01
2018-10-19T00:14:37.317Z,1019.01
2018-10-19T00:15:03.502Z,1019.01
2018-10-19T00:15:29.614Z,1018.97
2018-10-19T00:15:55.751Z,1019.03
2018-10-19T00:16:21.904Z,1018.99
2018-10-19T00:16:48.041Z,1019.01
2018-10-19T00:17:14.256Z,1019.03
2018-10-19T00:17:40.355Z,1019.02
2018-10-19T00:18:06.478Z,1018.96
2018-10-19T00:18:32.605Z,1018.99
2018-10-19T00:18:58.746Z,1019
2018-10-19T00:19:24.911Z,1018.96
2018-10-19T00:19:51.058Z,1018.99
2018-10-19T00:20:17.191Z,1018.99
2018-10-19T00:20:43.332Z,1018.99
2018-10-19T00:21:09.595Z,1019
2018-10-19T00:21:35.598Z,1019.01
2018-10-19T00:22:01.757Z,1019
2018-10-19T00:22:27.902Z,1018.99
2018-10-19T00:22:54.061Z,1018.97
2018-10-19T00:23:20.209Z,1018.99
2018-10-19T00:23:46.348Z,1018.98
2018-10-19T00:24:12.505Z,1019.01
2018-10-19T00:24:38.641Z,1019
2018-10-19T00:25:04.807Z,1019
2018-10-19T00:25:30.947Z,1019
2018-10-19T00:25:57.113Z,1018.97
2018-10-19T00:26:23.266Z,1019.01
2018-10-19T00:26:49.402Z,1018.98
2018-10-19T00:27:15.627Z,1018.98
2018-10-19T00:27:41.671Z,1018.98
2018-10-19T00:28:07.809Z,1018.98
2018-10-19T00:28:33.954Z,1019.02
2018-10-19T00:29:00.124Z,1018.99
2018-10-19T00:29:26.259Z,1018.98
2018-10-19T00:29:52.384Z,1018.99
2018-10-19T00:30:18.523Z,1019.02
2018-10-19T00:30:44.659Z,1019.01
2018-10-19T00:31:10.796Z,1019.03
2018-10-19T00:31:36.930Z,1019
2018-10-19T00:32:03.061Z,1019.05
2018-10-19T00:32:29.189Z,1019
2018-10-19T00:32:55.360Z,1019.01
2018-10-19T00:33:21.498Z,1019
2018-10-19T00:33:47.630Z,1018.99
2018-10-19T00:34:13.768Z,1018.95
2018-10-19T00:34:39.919Z,1018.94
2018-10-19T00:35:06.069Z,1018.96
2018-10-19T00:35:32.184Z,1018.96
2018-10-19T00:35:58.352Z,1018.92
2018-10-19T00:36:24.479Z,1018.93
2018-10-19T00:36:50.684Z,1018.95
2018-10-19T00:37:16.778Z,1018.94
2018-10-19T00:37:42.918Z,1018.89
2018-10-19T00:38:09.052Z,1018.95
2018-10-19T00:38:35.187Z,1018.91
2018-10-19T00:39:01.355Z,1018.91
2018-10-19T00:39:27.479Z,1018.93
2018-10-19T00:39:53.605Z,1018.91
2018-10-19T00:40:19.743Z,1018.86
2018-10-19T00:40:45.876Z,1018.9
2018-10-19T00:41:12.144Z,1018.89
2018-10-19T00:41:38.220Z,1018.85
2018-10-19T00:42:04.369Z,1018.9
2018-10-19T00:42:30.527Z,1018.89
2018-10-19T00:42:56.677Z,1018.91
2018-10-19T00:43:22.836Z,1018.87
2018-10-19T00:43:48.970Z,1018.89
2018-10-19T00:44:15.126Z,1018.85
2018-10-19T00:44:41.263Z,1018.9
2018-10-19T00:45:07.464Z,1018.89
2018-10-19T00:45:33.532Z,1018.87
2018-10-19T00:45:59.694Z,1018.86
2018-10-19T00:46:25.849Z,1018.89
2018-10-19T00:46:52.071Z,1018.87
2018-10-19T00:47:18.142Z,1018.88
2018-10-19T00:47:44.298Z,1018.91
2018-10-19T00:48:10.440Z,1018.86
2018-10-19T00:48:36.566Z,1018.89
2018-10-19T00:49:02.698Z,1018.9
2018-10-19T00:49:28.835Z,1018.86
2018-10-19T00:49:54.988Z,1018.85
2018-10-19T00:50:21.118Z,1018.87
2018-10-19T00:50:47.251Z,1018.85
2018-10-19T00:51:13.411Z,1018.84
2018-10-19T00:51:39.510Z,1018.88
2018-10-19T00:52:05.652Z,1018.84
2018-10-19T00:52:31.788Z,1018.82
2018-10-19T00:52:57.931Z,1018.82
2018-10-19T00:53:24.097Z,1018.8
2018-10-19T00:53:50.228Z,1018.82
2018-10-19T00:54:16.356Z,1018.83
2018-10-19T00:54:42.513Z,1018.82
2018-10-19T00:55:08.640Z,1018.8
2018-10-19T00:55:34.774Z,1018.8
2018-10-19T00:56:00.905Z,1018.77
2018-10-19T00:56:27.061Z,1018.77
2018-10-19T00:56:53.221Z,1018.78
2018-10-19T00:57:19.381Z,1018.77
2018-10-19T00:57:45.508Z,1018.75
2018-10-19T00:58:11.644Z,1018.76
2018-10-19T00:58:37.789Z,1018.78
2018-10-19T00:59:04.013Z,1018.76
2018-10-19T00:59:30.089Z,1018.75
2018-10-19T00:59:56.216Z,1018.75
2018-10-19T01:00:22.373Z,1018.77
2018-10-19T01:00:48.506Z,1018.75
2018-10-19T01:01:14.639Z,1018.76
2018-10-19T01:01:40.795Z,1018.77
2018-10-19T01:02:06.951Z,1018.77
2018-10-19T01:02:33.080Z,1018.73
2018-10-19T01:02:59.285Z,1018.77
2018-10-19T01:03:25.380Z,1018.75
2018-10-19T01:03:51.508Z,1018.76
2018-10-19T01:04:17.647Z,1018.77
2018-10-19T01:04:43.787Z,1018.76
2018-10-19T01:05:10.068Z,1018.76
2018-10-19T01:05:36.104Z,1018.7
2018-10-19T01:06:02.246Z,1018.75
2018-10-19T01:06:28.379Z,1018.7
2018-10-19T01:06:54.535Z,1018.71
2018-10-19T01:07:20.666Z,1018.71
2018-10-19T01:07:46.849Z,1018.72
2018-10-19T01:08:13.004Z,1018.73
2018-10-19T01:08:39.138Z,1018.73
2018-10-19T01:09:05.335Z,1018.74
2018-10-19T01:09:31.429Z,1018.74
2018-10-19T01:09:57.587Z,1018.73
2018-10-19T01:10:23.726Z,1018.74
2018-10-19T01:10:49.867Z,1018.72
2018-10-19T01:11:16.099Z,1018.74
2018-10-19T01:11:42.159Z,1018.72
2018-10-19T01:12:08.285Z,1018.75
2018-10-19T01:12:34.443Z,1018.77
2018-10-19T01:13:00.574Z,1018.76
2018-10-19T01:13:26.712Z,1018.75
2018-10-19T01:13:52.837Z,1018.75
2018-10-19T01:14:18.981Z,1018.75
2018-10-19T01:14:45.106Z,1018.75
2018-10-19T01:15:11.359Z,1018.72
2018-10-19T01:15:37.444Z,1018.75
2018-10-19T01:16:03.581Z,1018.73
2018-10-19T01:16:29.715Z,1018.72
2018-10-19T01:16:55.869Z,1018.76
2018-10-19T01:17:21.993Z,1018.75
2018-10-19T01:17:48.121Z,1018.73
2018-10-19T01:18:14.258Z,1018.71
2018-10-19T01:18:40.388Z,1018.7
2018-10-19T01:19:06.569Z,1018.73
2018-10-19T01:19:32.696Z,1018.77
2018-10-19T01:19:58.857Z,1018.74
2018-10-19T01:20:24.991Z,1018.74
2018-10-19T01:20:51.147Z,1018.75
2018-10-19T01:21:17.327Z,1018.74
2018-10-19T01:21:43.459Z,1018.79
2018-10-19T01:22:09.612Z,1018.77
2018-10-19T01:22:35.750Z,1018.76
2018-10-19T01:23:01.921Z,1018.76
2018-10-19T01:23:28.048Z,1018.78
2018-10-19T01:23:54.183Z,1018.78
2018-10-19T01:24:20.313Z,1018.83
2018-10-19T01:24:46.458Z,1018.81
2018-10-19T01:25:12.598Z,1018.79
2018-10-19T01:25:38.737Z,1018.78
2018-10-19T01:26:04.885Z,1018.81
2018-10-19T01:26:31.018Z,1018.76
2018-10-19T01:26:57.162Z,1018.78
2018-10-19T01:27:23.315Z,1018.78
2018-10-19T01:27:49.444Z,1018.81
2018-10-19T01:28:15.581Z,1018.8
2018-10-19T01:28:41.734Z,1018.78
2018-10-19T01:29:07.911Z,1018.79
2018-10-19T01:29:34.067Z,1018.79
2018-10-19T01:30:00.194Z,1018.81
2018-10-19T01:30:26.322Z,1018.8
2018-10-19T01:30:52.477Z,1018.79
2018-10-19T01:31:18.634Z,1018.81
2018-10-19T01:31:44.769Z,1018.8
2018-10-19T01:32:10.899Z,1018.8
2018-10-19T01:32:37.035Z,1018.82
2018-10-19T01:33:03.217Z,1018.8
2018-10-19T01:33:29.298Z,1018.78
2018-10-19T01:33:55.436Z,1018.82
2018-10-19T01:34:21.573Z,1018.8
2018-10-19T01:34:47.702Z,1018.8
2018-10-19T01:35:13.937Z,1018.81
2018-10-19T01:35:39.972Z,1018.83
2018-10-19T01:36:06.130Z,1018.8
2018-10-19T01:36:32.251Z,1018.81
2018-10-19T01:36:58.381Z,1018.81
2018-10-19T01:37:24.518Z,1018.79
2018-10-19T01:37:50.675Z,1018.83
2018-10-19T01:38:16.823Z,1018.82
2018-10-19T01:38:42.959Z,1018.8
2018-10-19T01:39:09.187Z,1018.79
2018-10-19T01:39:35.235Z,1018.85
2018-10-19T01:40:01.371Z,1018.83
2018-10-19T01:40:27.507Z,1018.81
2018-10-19T01:40:53.651Z,1018.82
2018-10-19T01:41:19.789Z,1018.82
2018-10-19T01:41:45.920Z,1018.82
2018-10-19T01:42:12.075Z,1018.85
2018-10-19T01:42:38.212Z,1018.83
2018-10-19T01:43:04.343Z,1018.85
2018-10-19T01:43:30.480Z,1018.89
2018-10-19T01:43:56.615Z,1018.89
2018-10-19T01:44:22.743Z,1018.87
2018-10-19T01:44:48.870Z,1018.91
2018-10-19T01:45:15.122Z,1018.93
2018-10-19T01:45:41.203Z,1018.89
2018-10-19T01:46:07.348Z,1018.87
2018-10-19T01:46:33.482Z,1018.87
2018-10-19T01:46:59.628Z,1018.91
2018-10-19T01:47:25.864Z,1018.87
2018-10-19T01:47:51.998Z,1018.87
2018-10-19T01:48:18.136Z,1018.86
2018-10-19T01:48:44.262Z,1018.87
2018-10-19T01:49:10.401Z,1018.88
2018-10-19T01:49:36.528Z,1018.85
2018-10-19T01:50:02.664Z,1018.85
2018-10-19T01:50:28.841Z,1018.91
2018-10-19T01:50:55.013Z,1018.85
2018-10-19T01:51:21.104Z,1018.86
2018-10-19T01:51:47.248Z,1018.83
2018-10-19T01:52:13.375Z,1018.88
2018-10-19T01:52:39.514Z,1018.88
2018-10-19T01:53:05.692Z,1018.86
2018-10-19T01:53:31.800Z,1018.9
2018-10-19T01:53:57.926Z,1018.9
2018-10-19T01:54:24.080Z,1018.9
2018-10-19T01:54:50.219Z,1018.89
2018-10-19T01:55:16.359Z,1018.92
2018-10-19T01:55:42.482Z,1018.93
2018-10-19T01:56:08.611Z,1018.91
2018-10-19T01:56:34.738Z,1018.93
2018-10-19T01:57:00.912Z,1018.92
2018-10-19T01:57:27.024Z,1018.88
2018-10-19T01:57:53.153Z,1018.89
2018-10-19T01:58:19.292Z,1018.9
2018-10-19T01:58:45.426Z,1018.91
2018-10-19T01:59:11.703Z,1018.92
2018-10-19T01:59:37.783Z,1018.9
2018-10-19T02:00:03.936Z,1018.91
2018-10-19T02:00:30.085Z,1018.91
2018-10-19T02:00:56.221Z,1018.93
2018-10-19T02:01:22.348Z,1018.91
2018-10-19T02:01:48.487Z,1018.92
2018-10-19T02:02:14.610Z,1018.95
2018-10-19T02:02:40.752Z,1018.9
2018-10-19T02:03:06.912Z,1018.86
2018-10-19T02:03:33.034Z,1018.86
2018-10-19T02:03:59.165Z,1018.91
2018-10-19T02:04:25.332Z,1018.89
2018-10-19T02:04:51.433Z,1018.88
2018-10-19T02:05:17.594Z,1018.87
2018-10-19T02:05:43.755Z,1018.87
2018-10-19T02:06:09.888Z,1018.87
2018-10-19T02:06:36.033Z,1018.87
2018-10-19T02:07:02.167Z,1018.85
2018-10-19T02:07:28.300Z,1018.84
2018-10-19T02:07:54.435Z,1018.82
2018-10-19T02:08:20.568Z,1018.83
2018-10-19T02:08:46.696Z,1018.84
2018-10-19T02:09:12.937Z,1018.83
2018-10-19T02:09:38.977Z,1018.83
2018-10-19T02:10:05.118Z,1018.85
2018-10-19T02:10:31.242Z,1018.85
2018-10-19T02:10:57.397Z,1018.84
2018-10-19T02:11:23.529Z,1018.83
2018-10-19T02:11:49.661Z,1018.83
2018-10-19T02:12:15.795Z,1018.79
2018-10-19T02:12:41.956Z,1018.86
2018-10-19T02:13:08.082Z,1018.84
2018-10-19T02:13:34.219Z,1018.9
2018-10-19T02:14:00.348Z,1018.89
2018-10-19T02:14:26.484Z,1018.91
2018-10-19T02:14:52.642Z,1018.9
2018-10-19T02:15:18.832Z,1018.92
2018-10-19T02:15:44.966Z,1018.85
2018-10-19T02:16:11.101Z,1018.92
2018-10-19T02:16:37.243Z,1018.9
2018-10-19T02:17:03.444Z,1018.91
2018-10-19T02:17:29.546Z,1018.93
2018-10-19T02:17:55.675Z,1018.92
2018-10-19T02:18:21.809Z,1018.92
2018-10-19T02:18:47.938Z,1018.93
2018-10-19T02:19:14.098Z,1018.96
2018-10-19T02:19:40.234Z,1018.91
2018-10-19T02:20:06.370Z,1018.96
2018-10-19T02:20:32.493Z,1018.94
2018-10-19T02:20:58.660Z,1018.95
2018-10-19T02:21:24.807Z,1018.98
2018-10-19T02:21:50.934Z,1018.92
2018-10-19T02:22:17.070Z,1018.96
2018-10-19T02:22:43.199Z,1018.93
2018-10-19T02:23:09.403Z,1018.96
2018-10-19T02:23:35.486Z,1018.95
2018-10-19T02:24:01.614Z,1018.94
2018-10-19T02:24:27.777Z,1018.97
2018-10-19T02:24:53.932Z,1018.97
2018-10-19T02:25:20.080Z,1018.98
2018-10-19T02:25:46.217Z,1018.98
2018-10-19T02:26:12.368Z,1018.99
2018-10-19T02:26:38.509Z,1018.93
2018-10-19T02:27:04.664Z,1018.94
2018-10-19T02:27:30.774Z,1018.93
2018-10-19T02:27:56.903Z,1018.96
2018-10-19T02:28:23.055Z,1018.97
2018-10-19T02:28:49.214Z,1018.94
2018-10-19T02:29:15.359Z,1018.97
2018-10-19T02:29:41.520Z,1018.95
2018-10-19T02:30:07.691Z,1018.98
2018-10-19T02:30:33.785Z,1018.95
2018-10-19T02:30:59.925Z,1018.96
2018-10-19T02:31:26.084Z,1018.92
2018-10-19T02:31:52.234Z,1018.95
2018-10-19T02:32:18.380Z,1018.94
2018-10-19T02:32:44.516Z,1018.96
2018-10-19T02:33:10.751Z,1018.94
2018-10-19T02:33:36.843Z,1018.93
2018-10-19T02:34:03.015Z,1018.97
2018-10-19T02:34:29.173Z,1018.93
2018-10-19T02:34:55.379Z,1018.91
2018-10-19T02:35:21.494Z,1018.95
2018-10-19T02:35:47.647Z,1018.95
2018-10-19T02:36:13.801Z,1018.95
2018-10-19T02:36:39.965Z,1018.93
2018-10-19T02:37:06.149Z,1018.92
2018-10-19T02:37:32.277Z,1018.93
2018-10-19T02:37:58.428Z,1018.93
2018-10-19T02:38:24.582Z,1018.92
2018-10-19T02:38:50.719Z,1018.91
2018-10-19T02:39:16.904Z,1018.91
2018-10-19T02:39:43.000Z,1018.89
2018-10-19T02:40:09.165Z,1018.88
2018-10-19T02:40:35.308Z,1018.89
2018-10-19T02:41:01.536Z,1018.91
2018-10-19T02:41:27.633Z,1018.91
2018-10-19T02:41:53.794Z,1018.91
2018-10-19T02:42:19.955Z,1018.9
2018-10-19T02:42:46.075Z,1018.9
2018-10-19T02:43:12.209Z,1018.92
2018-10-19T02:43:38.387Z,1018.9
2018-10-19T02:44:04.511Z,1018.89
2018-10-19T02:44:30.647Z,1018.9
2018-10-19T02:44:56.794Z,1018.91
2018-10-19T02:45:22.922Z,1018.88
2018-10-19T02:45:49.070Z,1018.89
2018-10-19T02:46:15.188Z,1018.88
2018-10-19T02:46:41.355Z,1018.85
2018-10-19T02:47:07.591Z,1018.83
2018-10-19T02:47:33.709Z,1018.86
2018-10-19T02:47:59.842Z,1018.86
2018-10-19T02:48:26.002Z,1018.88
2018-10-19T02:48:52.136Z,1018.87
2018-10-19T02:49:18.266Z,1018.84
2018-10-19T02:49:44.388Z,1018.81
2018-10-19T02:50:10.520Z,1018.85
2018-10-19T02:50:36.672Z,1018.82
2018-10-19T02:51:02.810Z,1018.86
2018-10-19T02:51:28.950Z,1018.89
2018-10-19T02:51:55.078Z,1018.86
2018-10-19T02:52:21.239Z,1018.89
2018-10-19T02:52:47.369Z,1018.91
2018-10-19T02:53:13.625Z,1018.87
2018-10-19T02:53:39.663Z,1018.88
2018-10-19T02:54:05.812Z,1018.9
2018-10-19T02:54:31.966Z,1018.88
2018-10-19T02:54:58.124Z,1018.89
2018-10-19T02:55:24.313Z,1018.93
2018-10-19T02:55:50.466Z,1018.91
2018-10-19T02:56:16.599Z,1018.89
2018-10-19T02:56:42.737Z,1018.88
2018-10-19T02:57:08.936Z,1018.87
2018-10-19T02:57:35.055Z,1018.91
2018-10-19T02:58:01.212Z,1018.93
2018-10-19T02:58:27.347Z,1018.9
2018-10-19T02:58:53.508Z,1018.92
2018-10-19T02:59:19.629Z,1018.89
2018-10-19T02:59:45.760Z,1018.88
2018-10-19T03:00:11.902Z,1018.88
2018-10-19T03:00:38.061Z,1018.9
2018-10-19T03:01:04.190Z,1018.93
2018-10-19T03:01:30.360Z,1018.93
2018-10-19T03:01:56.494Z,1018.91
2018-10-19T03:02:22.636Z,1018.94
2018-10-19T03:02:48.767Z,1018.91
2018-10-19T03:03:15.023Z,1018.91
2018-10-19T03:03:41.091Z,1018.95
2018-10-19T03:04:07.241Z,1018.94
2018-10-19T03:04:33.383Z,1018.94
2018-10-19T03:04:59.537Z,1018.92
2018-10-19T03:05:25.645Z,1018.98
2018-10-19T03:05:51.792Z,1018.96
2018-10-19T03:06:17.953Z,1018.97
2018-10-19T03:06:44.104Z,1018.98
2018-10-19T03:07:10.295Z,1018.94
2018-10-19T03:07:36.426Z,1018.92
2018-10-19T03:08:02.576Z,1018.93
2018-10-19T03:08:28.728Z,1018.92
2018-10-19T03:08:54.877Z,1018.97
2018-10-19T03:09:21.040Z,1018.94
2018-10-19T03:09:47.193Z,1018.92
2018-10-19T03:10:13.347Z,1018.97
2018-10-19T03:10:39.471Z,1018.93
2018-10-19T03:11:05.641Z,1018.97
2018-10-19T03:11:31.792Z,1018.94
2018-10-19T03:11:57.891Z,1018.96
2018-10-19T03:12:24.048Z,1019
2018-10-19T03:12:50.188Z,1018.97
2018-10-19T03:13:16.315Z,1018.98
2018-10-19T03:13:42.443Z,1019
2018-10-19T03:14:08.607Z,1019.01
2018-10-19T03:14:34.753Z,1019.02
2018-10-19T03:15:00.905Z,1019
2018-10-19T03:15:27.013Z,1018.97
2018-10-19T03:15:53.171Z,1019
2018-10-19T03:16:19.308Z,1018.97
2018-10-19T03:16:45.486Z,1018.98
2018-10-19T03:17:11.701Z,1018.95
2018-10-19T03:17:37.778Z,1018.99
2018-10-19T03:18:03.908Z,1018.97
2018-10-19T03:18:30.079Z,1018.96
2018-10-19T03:18:56.244Z,1018.99
2018-10-19T03:19:22.379Z,1018.96
2018-10-19T03:19:48.532Z,1018.95
2018-10-19T03:20:14.666Z,1018.96
2018-10-19T03:20:40.827Z,1018.94
2018-10-19T03:21:06.959Z,1018.96
2018-10-19T03:21:33.111Z,1018.96
2018-10-19T03:21:59.243Z,1018.93
2018-10-19T03:22:25.369Z,1018.95
2018-10-19T03:22:51.527Z,1018.96
2018-10-19T03:23:17.850Z,1018.96
2018-10-19T03:23:43.813Z,1018.93
2018-10-19T03:24:09.945Z,1018.97
2018-10-19T03:24:36.070Z,1018.93
2018-10-19T03:25:02.240Z,1018.94
2018-10-19T03:25:28.464Z,1018.97
2018-10-19T03:25:54.530Z,1018.97
2018-10-19T03:26:20.685Z,1018.98
2018-10-19T03:26:46.861Z,1018.96
2018-10-19T03:27:13.108Z,1018.94
2018-10-19T03:27:39.139Z,1018.97
2018-10-19T03:28:05.268Z,1018.95
2018-10-19T03:28:31.445Z,1018.94
2018-10-19T03:28:57.601Z,1018.92
2018-10-19T03:29:23.729Z,1018.93
2018-10-19T03:29:49.882Z,1018.91
2018-10-19T03:30:16.038Z,1018.92
2018-10-19T03:30:42.234Z,1018.9
2018-10-19T03:31:08.392Z,1018.88
2018-10-19T03:31:34.529Z,1018.86
2018-10-19T03:32:00.753Z,1018.89
2018-10-19T03:32:26.918Z,1018.86
2018-10-19T03:32:53.093Z,1018.91
2018-10-19T03:33:19.444Z,1018.91
2018-10-19T03:33:45.398Z,1018.85
2018-10-19T03:34:11.562Z,1018.86
2018-10-19T03:34:37.715Z,1018.87
2018-10-19T03:35:03.922Z,1018.91
2018-10-19T03:35:30.026Z,1018.87
2018-10-19T03:35:56.181Z,1018.89
2018-10-19T03:36:22.313Z,1018.87
2018-10-19T03:36:48.449Z,1018.89
2018-10-19T03:37:14.574Z,1018.85
2018-10-19T03:37:40.709Z,1018.85
2018-10-19T03:38:06.885Z,1018.87
2018-10-19T03:38:33.022Z,1018.87
2018-10-19T03:38:59.192Z,1018.89
2018-10-19T03:39:25.293Z,1018.87
2018-10-19T03:39:51.456Z,1018.88
2018-10-19T03:40:17.616Z,1018.86
2018-10-19T03:40:43.754Z,1018.86
2018-10-19T03:41:10.024Z,1018.86
2018-10-19T03:41:36.083Z,1018.87
2018-10-19T03:42:02.209Z,1018.82
2018-10-19T03:42:28.346Z,1018.85
2018-10-19T03:42:54.493Z,1018.89
2018-10-19T03:43:20.650Z,1018.86
2018-10-19T03:43:46.826Z,1018.83
2018-10-19T03:44:12.969Z,1018.85
2018-10-19T03:44:39.090Z,1018.84
2018-10-19T03:45:05.239Z,1018.82
2018-10-19T03:45:31.374Z,1018.83
2018-10-19T03:45:57.507Z,1018.84
2018-10-19T03:46:23.637Z,1018.82
2018-10-19T03:46:49.793Z,1018.85
2018-10-19T03:47:16.062Z,1018.87
2018-10-19T03:47:42.100Z,1018.84
2018-10-19T03:48:08.240Z,1018.85
2018-10-19T03:48:34.363Z,1018.85
2018-10-19T03:49:00.557Z,1018.82
2018-10-19T03:49:26.629Z,1018.87
2018-10-19T03:49:52.787Z,1018.86
2018-10-19T03:50:18.942Z,1018.87
2018-10-19T03:50:45.067Z,1018.82
2018-10-19T03:51:11.353Z,1018.84
2018-10-19T03:51:37.440Z,1018.85
2018-10-19T03:52:03.589Z,1018.85
2018-10-19T03:52:29.725Z,1018.85
2018-10-19T03:52:55.863Z,1018.85
2018-10-19T03:53:21.995Z,1018.87
2018-10-19T03:53:48.126Z,1018.85
2018-10-19T03:54:14.266Z,1018.87
2018-10-19T03:54:40.421Z,1018.88
2018-10-19T03:55:06.579Z,1018.87
2018-10-19T03:55:32.743Z,1018.87
2018-10-19T03:55:58.866Z,1018.88
2018-10-19T03:56:24.994Z,1018.89
2018-10-19T03:56:51.177Z,1018.93
2018-10-19T03:57:17.449Z,1018.91
2018-10-19T03:57:43.455Z,1018.9
2018-10-19T03:58:09.611Z,1018.92
2018-10-19T03:58:35.735Z,1018.89
2018-10-19T03:59:01.944Z,1018.9
2018-10-19T03:59:28.026Z,1018.89
2018-10-19T03:59:54.197Z,1018.92
2018-10-19T04:00:20.328Z,1018.91
2018-10-19T04:00:46.480Z,1018.9
2018-10-19T04:01:12.621Z,1018.91
2018-10-19T04:01:38.784Z,1018.9
2018-10-19T04:02:04.906Z,1018.91
2018-10-19T04:02:31.069Z,1018.92
2018-10-19T04:02:57.261Z,1018.91
2018-10-19T04:03:23.408Z,1018.9
2018-10-19T04:03:49.578Z,1018.91
2018-10-19T04:04:15.721Z,1018.9
2018-10-19T04:04:41.883Z,1018.89
2018-10-19T04:05:08.111Z,1018.89
2018-10-19T04:05:34.169Z,1018.9
2018-10-19T04:06:00.339Z,1018.89
2018-10-19T04:06:26.480Z,1018.89
2018-10-19T04:06:52.631Z,1018.9
2018-10-19T04:07:18.781Z,1018.88
2018-10-19T04:07:44.918Z,1018.91
2018-10-19T04:08:11.096Z,1018.9
2018-10-19T04:08:37.236Z,1018.9
2018-10-19T04:09:03.410Z,1018.91
2018-10-19T04:09:29.526Z,1018.9
2018-10-19T04:09:55.691Z,1018.89
2018-10-19T04:10:21.851Z,1018.91
2018-10-19T04:10:47.982Z,1018.89
2018-10-19T04:11:14.205Z,1018.9
2018-10-19T04:11:40.287Z,1018.94
2018-10-19T04:12:06.425Z,1018.96
2018-10-19T04:12:32.582Z,1018.9
2018-10-19T04:12:58.738Z,1018.92
2018-10-19T04:13:24.869Z,1018.91
2018-10-19T04:13:51.026Z,1018.94
2018-10-19T04:14:17.160Z,1018.94
2018-10-19T04:14:43.290Z,1018.95
2018-10-19T04:15:09.517Z,1018.96
2018-10-19T04:15:35.555Z,1018.91
2018-10-19T04:16:01.684Z,1018.93
2018-10-19T04:16:27.818Z,1018.94
2018-10-19T04:16:53.977Z,1018.94
2018-10-19T04:17:20.113Z,1018.94
2018-10-19T04:17:46.240Z,1018.89
2018-10-19T04:18:12.366Z,1018.91
2018-10-19T04:18:38.501Z,1018.95
2018-10-19T04:19:04.638Z,1018.96
2018-10-19T04:19:30.766Z,1018.92
2018-10-19T04:19:56.921Z,1018.96
2018-10-19T04:20:23.077Z,1018.94
2018-10-19T04:20:49.210Z,1018.96
2018-10-19T04:21:15.416Z,1018.95
2018-10-19T04:21:41.539Z,1018.92
2018-10-19T04:22:07.669Z,1018.94
2018-10-19T04:22:33.801Z,1018.95
2018-10-19T04:22:59.930Z,1018.93
2018-10-19T04:23:26.093Z,1018.92
2018-10-19T04:23:52.220Z,1018.94
2018-10-19T04:24:18.379Z,1018.93
2018-10-19T04:24:44.517Z,1018.94
2018-10-19T04:25:10.644Z,1018.92
2018-10-19T04:25:36.776Z,1018.92
2018-10-19T04:26:02.927Z,1018.99
2018-10-19T04:26:29.067Z,1018.96
2018-10-19T04:26:55.263Z,1019.01
2018-10-19T04:27:21.440Z,1018.97
2018-10-19T04:27:47.487Z,1018.99
2018-10-19T04:28:13.628Z,1018.99
2018-10-19T04:28:39.785Z,1018.98
2018-10-19T04:29:06.035Z,1018.98
2018-10-19T04:29:32.107Z,1018.98
2018-10-19T04:29:58.269Z,1018.98
2018-10-19T04:30:24.397Z,1019
2018-10-19T04:30:50.560Z,1018.98
2018-10-19T04:31:16.738Z,1018.99
2018-10-19T04:31:42.875Z,1018.99
2018-10-19T04:32:09.009Z,1018.96
2018-10-19T04:32:35.143Z,1018.99
2018-10-19T04:33:01.298Z,1019.02
2018-10-19T04:33:27.446Z,1018.96
2018-10-19T04:33:53.596Z,1018.96
2018-10-19T04:34:19.729Z,1018.99
2018-10-19T04:34:45.864Z,1018.99
2018-10-19T04:35:12.064Z,1018.97
2018-10-19T04:35:38.178Z,1018.96
2018-10-19T04:36:04.316Z,1018.96
2018-10-19T04:36:30.468Z,1018.99
2018-10-19T04:36:56.600Z,1018.96
2018-10-19T04:37:22.735Z,1018.96
2018-10-19T04:37:48.864Z,1018.97
2018-10-19T04:38:14.996Z,1018.93
2018-10-19T04:38:41.130Z,1018.92
2018-10-19T04:39:07.354Z,1018.97
2018-10-19T04:39:33.410Z,1018.96
2018-10-19T04:39:59.542Z,1018.96
2018-10-19T04:40:25.708Z,1018.95
2018-10-19T04:40:51.869Z,1018.97
2018-10-19T04:41:18.092Z,1018.96
2018-10-19T04:41:44.362Z,1018.95
2018-10-19T04:42:10.385Z,1018.92
2018-10-19T04:42:36.492Z,1018.93
2018-10-19T04:43:02.627Z,1018.96
2018-10-19T04:43:28.777Z,1018.96
2018-10-19T04:43:54.908Z,1019.01
2018-10-19T04:44:21.042Z,1018.96
2018-10-19T04:44:47.195Z,1018.99
2018-10-19T04:45:13.422Z,1019
2018-10-19T04:45:39.465Z,1018.99
2018-10-19T04:46:05.620Z,1019.02
2018-10-19T04:46:31.756Z,1019
2018-10-19T04:46:57.905Z,1019
2018-10-19T04:47:24.052Z,1019
2018-10-19T04:47:50.403Z,1019
2018-10-19T04:48:16.379Z,1019
2018-10-19T04:48:42.512Z,1018.99
2018-10-19T04:49:08.647Z,1018.99
2018-10-19T04:49:34.828Z,1018.99
2018-10-19T04:50:01.012Z,1018.99
2018-10-19T04:50:27.138Z,1019.03
2018-10-19T04:50:53.272Z,1019
2018-10-19T04:51:19.442Z,1019
2018-10-19T04:51:45.578Z,1019.01
2018-10-19T04:52:11.735Z,1018.98
2018-10-19T04:52:37.883Z,1019.01
2018-10-19T04:53:04.133Z,1018.97
2018-10-19T04:53:30.246Z,1018.92
2018-10-19T04:53:56.385Z,1018.95
2018-10-19T04:54:22.553Z,1018.95
2018-10-19T04:54:48.714Z,1018.99
2018-10-19T04:55:14.866Z,1018.93
2018-10-19T04:55:40.995Z,1018.99
2018-10-19T04:56:07.123Z,1019
2018-10-19T04:56:33.258Z,1018.99
2018-10-19T04:56:59.465Z,1019.01
2018-10-19T04:57:25.572Z,1019.01
2018-10-19T04:57:51.752Z,1018.99
2018-10-19T04:58:17.899Z,1018.98
2018-10-19T04:58:44.065Z,1018.99
2018-10-19T04:59:10.266Z,1018.96
2018-10-19T04:59:36.347Z,1018.99
2018-10-19T05:00:02.474Z,1018.98
2018-10-19T05:00:28.673Z,1018.98
2018-10-19T05:00:54.811Z,1018.98
2018-10-19T05:01:20.936Z,1019.01
2018-10-19T05:01:47.093Z,1019.02
2018-10-19T05:02:13.250Z,1018.97
2018-10-19T05:02:39.414Z,1018.95
2018-10-19T05:03:05.688Z,1018.95
2018-10-19T05:03:31.727Z,1018.96
2018-10-19T05:03:57.862Z,1018.99
2018-10-19T05:04:24.100Z,1018.96
2018-10-19T05:04:50.304Z,1019
2018-10-19T05:05:16.432Z,1018.96
2018-10-19T05:05:42.579Z,1018.99
2018-10-19T05:06:08.675Z,1019
2018-10-19T05:06:34.919Z,1018.99
2018-10-19T05:07:01.002Z,1018.97
2018-10-19T05:07:27.152Z,1019.01
2018-10-19T05:07:53.382Z,1019.01
2018-10-19T05:08:19.489Z,1019.01
2018-10-19T05:08:45.614Z,1019.01
2018-10-19T05:09:11.745Z,1019.05
2018-10-19T05:09:37.882Z,1019.03
2018-10-19T05:10:04.033Z,1019.02
2018-10-19T05:10:30.158Z,1019.02
2018-10-19T05:10:56.335Z,1019.01
2018-10-19T05:11:22.421Z,1019.01
2018-10-19T05:11:48.558Z,1019
2018-10-19T05:12:14.716Z,1019.03
2018-10-19T05:12:41.125Z,1019.01
2018-10-19T05:13:07.178Z,1019.03
2018-10-19T05:13:33.262Z,1019.02
2018-10-19T05:13:59.442Z,1019.04
2018-10-19T05:14:25.617Z,1019.05
2018-10-19T05:14:51.749Z,1019.02
2018-10-19T05:15:17.877Z,1019.04
2018-10-19T05:15:44.007Z,1019.05
2018-10-19T05:16:10.166Z,1019.04
2018-10-19T05:16:36.334Z,1019.06
2018-10-19T05:17:02.576Z,1019.07
2018-10-19T05:17:28.622Z,1019.05
2018-10-19T05:17:54.847Z,1019.06